createdAt,value
2018-12-01T00:02:09.747Z,34.94
2018-12-01T00:08:04.741Z,30.93
2018-12-01T00:13:59.757Z,28.46
2018-12-01T00:19:54.775Z,30.49
2018-12-01T00:25:49.788Z,22.44
2018-12-01T00:31:44.770Z,20.75
2018-12-01T00:37:39.777Z,26.88
2018-12-01T00:43:34.848Z,20.26
2018-12-01T00:49:29.773Z,21.71
2018-12-01T00:55:24.803Z,20.74
2018-12-01T01:01:19.843Z,48.17
2018-12-01T01:07:14.756Z,63.98
2018-12-01T01:13:09.743Z,58.98
2018-12-01T01:19:04.768Z,50.74
2018-12-01T01:24:59.781Z,48.12
2018-12-01T01:30:54.832Z,44.04
2018-12-01T01:36:49.782Z,39.65
2018-12-01T01:42:44.768Z,33.15
2018-12-01T01:48:39.805Z,34.43
2018-12-01T01:54:34.783Z,32.21
2018-12-01T02:00:29.781Z,33.79
2018-12-01T02:06:24.795Z,30.47
2018-12-01T02:12:19.750Z,35.82
2018-12-01T02:18:14.823Z,25.55
2018-12-01T02:24:09.770Z,27.91
2018-12-01T02:30:04.814Z,26.91
2018-12-01T02:35:59.785Z,25.22
2018-12-01T02:41:54.777Z,27.68
2018-12-01T02:47:49.776Z,28.46
2018-12-01T02:53:44.794Z,27.97
2018-12-01T02:59:39.783Z,43.02
2018-12-01T03:05:34.815Z,43.2
2018-12-01T03:11:29.815Z,53.06
2018-12-01T03:17:24.785Z,35.47
2018-12-01T03:23:19.812Z,36.44
2018-12-01T03:29:14.782Z,32.54
2018-12-01T03:35:09.842Z,37.97
2018-12-01T03:41:04.789Z,30.5
2018-12-01T03:46:59.800Z,33.44
2018-12-01T03:52:54.798Z,29.63
2018-12-01T03:58:49.785Z,29.1
2018-12-01T04:04:44.823Z,30.56
2018-12-01T04:10:39.784Z,30.27
2018-12-01T04:16:34.814Z,26.89
2018-12-01T04:22:29.787Z,25.52
2018-12-01T04:28:24.828Z,28.24
2018-12-01T04:34:19.807Z,28.28
2018-12-01T04:40:14.800Z,24.88
2018-12-01T04:46:09.789Z,21.85
2018-12-01T04:52:04.879Z,29.97
2018-12-01T04:57:59.855Z,33.48
2018-12-01T05:03:54.813Z,25.63
2018-12-01T05:09:49.800Z,25.55
2018-12-01T05:15:44.804Z,23.81
2018-12-01T05:21:39.788Z,23.67
2018-12-01T05:27:34.812Z,31.42
2018-12-01T05:33:29.805Z,25.02
2018-12-01T05:39:24.837Z,32.54
2018-12-01T05:45:19.812Z,28.61
2018-12-01T05:51:14.829Z,29.77
2018-12-01T05:57:09.839Z,29.72
2018-12-01T06:03:04.826Z,28.23
2018-12-01T06:08:59.812Z,25.32
2018-12-01T06:14:54.820Z,28.98
2018-12-01T06:20:49.851Z,44.93
2018-12-01T06:26:44.844Z,32.27
2018-12-01T06:32:39.830Z,25.66
2018-12-01T06:38:34.841Z,25.12
2018-12-01T06:44:29.847Z,32.9
2018-12-01T06:50:24.834Z,29.7
2018-12-01T06:56:19.847Z,25.8
2018-12-01T07:02:14.822Z,27.92
2018-12-01T07:08:09.823Z,37.89
2018-12-01T07:14:04.831Z,35.07
2018-12-01T07:19:59.859Z,37.26
2018-12-01T07:25:54.874Z,22.28
2018-12-01T07:31:49.843Z,28.67
2018-12-01T07:37:44.833Z,28.79
2018-12-01T07:43:39.838Z,27.2
2018-12-01T07:49:34.909Z,27.68
2018-12-01T07:55:29.903Z,26.3
2018-12-01T08:01:24.859Z,24
2018-12-01T08:07:19.852Z,33.63
2018-12-01T08:13:14.837Z,30.24
2018-12-01T08:19:09.854Z,31.16
2018-12-01T08:25:04.853Z,31.26
2018-12-01T08:30:59.943Z,38.96
2018-12-01T08:36:54.833Z,33.07
2018-12-01T08:42:49.901Z,34.34
2018-12-01T08:48:44.857Z,35.77
2018-12-01T08:54:39.853Z,38.33
2018-12-01T09:00:34.853Z,37.83
2018-12-01T09:06:29.903Z,29.34
2018-12-01T09:12:24.870Z,43.42
2018-12-01T09:18:19.844Z,48.46
2018-12-01T09:24:14.869Z,44.41
2018-12-01T09:30:09.867Z,44.21
2018-12-01T09:36:04.882Z,55.55
2018-12-01T09:41:59.846Z,43.63
2018-12-01T09:47:54.871Z,48.3
2018-12-01T09:53:49.892Z,35.15
2018-12-01T09:59:45.035Z,30.35
2018-12-01T10:05:39.884Z,27.65
2018-12-01T10:11:34.908Z,24.94
2018-12-01T10:17:29.869Z,30.39
2018-12-01T10:23:24.896Z,22.36
2018-12-01T10:29:19.863Z,26.51
2018-12-01T10:35:14.915Z,26.75
2018-12-01T10:41:09.889Z,27.63
2018-12-01T10:47:04.864Z,27.75
2018-12-01T10:52:59.859Z,28.11
2018-12-01T10:58:54.864Z,29.27
2018-12-01T11:04:49.888Z,25.08
2018-12-01T11:10:44.875Z,24.83
2018-12-01T11:16:39.898Z,21.57
2018-12-01T11:22:34.914Z,25.43
2018-12-01T11:28:29.880Z,27.73
2018-12-01T11:34:24.904Z,30.89
2018-12-01T11:40:19.866Z,31.24
2018-12-01T11:46:14.862Z,23.49
2018-12-01T11:52:09.868Z,24.96
2018-12-01T11:58:04.926Z,30.28
2018-12-01T12:03:59.967Z,28.53
2018-12-01T12:09:54.874Z,26.5
2018-12-01T12:15:49.865Z,26.59
2018-12-01T12:21:44.999Z,29.3
2018-12-01T12:27:39.883Z,28.67
2018-12-01T12:33:34.901Z,30.95
2018-12-01T12:39:29.897Z,28.13
2018-12-01T12:45:24.881Z,26.57
2018-12-01T12:51:19.916Z,28.1
2018-12-01T12:57:14.903Z,26.08
2018-12-01T13:03:09.911Z,26.92
2018-12-01T13:09:04.898Z,29.1
2018-12-01T13:14:59.900Z,36.77
2018-12-01T13:20:54.892Z,25.91
2018-12-01T13:26:49.917Z,19.3
2018-12-01T13:32:44.902Z,35.69
2018-12-01T13:38:39.979Z,31.32
2018-12-01T13:44:34.920Z,25.09
2018-12-01T13:50:29.914Z,22.13
2018-12-01T13:56:24.907Z,22.05
2018-12-01T14:02:19.933Z,22.12
2018-12-01T14:08:14.920Z,21.45
2018-12-01T14:14:09.904Z,23.72
2018-12-01T14:20:04.903Z,27.97
2018-12-01T14:25:59.919Z,28.55
2018-12-01T14:31:54.910Z,22.72
2018-12-01T14:37:49.918Z,28.75
2018-12-01T14:43:44.931Z,42.44
2018-12-01T14:49:39.919Z,33.4
2018-12-01T14:55:34.923Z,15.77
2018-12-01T15:01:29.980Z,22.73
2018-12-01T15:07:25.063Z,19.87
2018-12-01T15:13:20.198Z,16.31
2018-12-01T15:19:15.182Z,32.14
2018-12-01T15:25:09.979Z,13.72
2018-12-01T15:31:05.266Z,12.6
2018-12-01T15:36:59.963Z,13.37
2018-12-01T15:42:54.945Z,23.3
2018-12-01T15:48:50.051Z,30.9
2018-12-01T15:54:44.957Z,24.83
2018-12-01T16:00:39.943Z,31.91
2018-12-01T16:06:35.201Z,45.03
2018-12-01T16:12:30.133Z,34.19
2018-12-01T16:18:24.934Z,39.49
2018-12-01T16:24:20.670Z,36.65
2018-12-01T16:30:14.969Z,34.72
2018-12-01T16:36:09.982Z,37.06
2018-12-01T16:42:05.015Z,33.2
2018-12-01T16:48:00.020Z,33.49
2018-12-01T16:53:54.995Z,40.93
2018-12-01T16:59:49.960Z,38.67
2018-12-01T17:05:44.963Z,35.34
2018-12-01T17:11:40.025Z,41.19
2018-12-01T17:17:34.985Z,35.29
2018-12-01T17:23:29.988Z,36.49
2018-12-01T17:29:24.967Z,46.85
2018-12-01T17:35:19.981Z,37.75
2018-12-01T17:41:14.964Z,32.39
2018-12-01T17:47:09.969Z,29.5
2018-12-01T17:53:10.159Z,21.95
2018-12-01T17:58:59.984Z,22.31
2018-12-01T18:04:54.989Z,33.05
2018-12-01T18:10:50.008Z,26.47
2018-12-01T18:16:45.027Z,34.22
2018-12-01T18:22:39.998Z,25.56
2018-12-01T18:28:35.016Z,52.43
2018-12-01T18:34:29.974Z,45.1
2018-12-01T18:40:24.987Z,60.84
2018-12-01T18:46:19.980Z,62.91
2018-12-01T18:52:14.999Z,41.72
2018-12-01T18:58:10.009Z,30.02
2018-12-01T19:04:05.143Z,46.12
2018-12-01T19:10:00.031Z,36.39
2018-12-01T19:15:54.999Z,73.16
2018-12-01T19:21:50.008Z,65.75
2018-12-01T19:27:44.985Z,53.94
2018-12-01T19:33:40.021Z,37.64
2018-12-01T19:39:35.002Z,39.1
2018-12-01T19:45:30.033Z,33.04
2018-12-01T19:51:24.987Z,26.93
2018-12-01T19:57:19.995Z,26.02
2018-12-01T20:03:15.063Z,29.54
2018-12-01T20:09:09.994Z,25.57
2018-12-01T20:15:05.001Z,30.02
2018-12-01T20:21:00.009Z,26.13
2018-12-01T20:26:55.004Z,26.19
2018-12-01T20:32:49.995Z,19.99
2018-12-01T20:38:45.042Z,37.17
2018-12-01T20:44:40.022Z,20.9
2018-12-01T20:50:34.994Z,27.17
2018-12-01T20:56:30.067Z,20.6
2018-12-01T21:02:25.017Z,25.6
2018-12-01T21:08:20.077Z,28.17
2018-12-01T21:14:15.092Z,21.73
2018-12-01T21:20:10.015Z,25.39
2018-12-01T21:26:04.996Z,34.88
2018-12-01T21:32:00.013Z,39.16
2018-12-01T21:37:55.025Z,29.7
2018-12-01T21:43:50.038Z,27.07
2018-12-01T21:49:45.006Z,40.9
2018-12-01T21:55:40.078Z,24.06
2018-12-01T22:01:35.053Z,21.39
2018-12-01T22:07:30.010Z,21.13
2018-12-01T22:13:25.045Z,21.84
2018-12-01T22:19:20.018Z,21.56
2018-12-01T22:25:15.013Z,28.73
2018-12-01T22:31:10.019Z,17.49
2018-12-01T22:37:05.033Z,16.75
2018-12-01T22:43:00.046Z,14.82
2018-12-01T22:48:55.054Z,15.71
2018-12-01T22:54:50.039Z,15.82
2018-12-01T23:00:46.578Z,16.43
2018-12-01T23:06:41.189Z,13.92
2018-12-01T23:12:36.058Z,10.38
2018-12-01T23:18:30.068Z,16.13
2018-12-01T23:24:25.054Z,14.01
2018-12-01T23:30:21.186Z,14.54
2018-12-01T23:36:16.238Z,17.67
2018-12-01T23:42:10.059Z,10.79
2018-12-01T23:48:05.038Z,12.77
2018-12-01T23:54:00.047Z,16.8
2018-12-01T23:59:55.049Z,15.82
